Portada
METAR-TAF:

METAR-TAF

Aeroports :

Ranchi, Índia

latitud: 23-18-51N, longitud: 85-19-18E, altitud: 646 m

Observació

L'informe es va fer fa 1 hora i 15 minuts, a les 15:00 UTC
Vent calma
Temperatura 27°C
Humitat 45%
Pressió 1014 hPa
Visibilitat: 4000 m
Escasses núvols a una alçada de 2000 ft
calitja

METAR: VERC 031500Z 00000KT 4000 HZ FEW020 27/14 Q1014 NOSIG

Hora: 21:45 (16:15 UTC)

Pronòstic

L'informe es va fer fa 8 hores i 15 minuts, a les 08:00 UTC
Pronòstic vàlid del 03 a les 09 UTC al 03 a les 18 UTC
Vent 5 kt del Nord-Est
Visibilitat: 6000 m
Evolucionant progressivament
l' 03 a les 12 UTC al 03 a les 14 UTC
Visibilitat: 4000 m
calitja
Evolucionant progressivament
l' 03 a les 15 UTC al 03 a les 17 UTC
Visibilitat: 3000 m
calitja

TAF: VERC 030800Z 0309/0318 05005KT 6000 NSC BECMG 0312/0314 4000 HZ BECMG 0315/0317 3000 HZ

Observacions i pronòstics meteorològics de més de 4000 aeroports (METAR i TAF).

Les estacions disponibles són els punts grocs i vermells al mapa.

Posi el ratolí al punt desitjat per veure el nom de l'estació.

Feu clic per veure les observacions i els pronòstics meteorològics.

Per canviar el mapa: feu clic els botons verds amb una creu de color negre per apropar; al botó verd amb un guió per allunyar la imatge; o en les fletxes verdes per a mapes adjacents.


METAR-TAF: